createdAt,value
2018-01-03T00:02:03.650Z,11.80
2018-01-03T00:04:32.041Z,10.53
2018-01-03T00:07:00.511Z,11.33
2018-01-03T00:09:28.882Z,10.43
2018-01-03T00:11:57.364Z,9.50
2018-01-03T00:14:24.977Z,11.40
2018-01-03T00:16:53.329Z,10.80
2018-01-03T00:19:21.041Z,9.50
2018-01-03T00:21:48.617Z,10.50
2018-01-03T00:24:17.138Z,9.17
2018-01-03T00:26:44.711Z,9.17
2018-01-03T00:29:13.150Z,10.30
2018-01-03T00:31:40.783Z,9.57
2018-01-03T00:34:09.276Z,9.43
2018-01-03T00:36:36.841Z,8.87
2018-01-03T00:39:05.406Z,9.50
2018-01-03T00:41:33.074Z,10.23
2018-01-03T00:44:01.469Z,10.40
2018-01-03T00:46:29.055Z,10.57
2018-01-03T00:48:57.530Z,10.20
2018-01-03T00:51:25.978Z,10.37
2018-01-03T00:53:53.563Z,8.60
2018-01-03T00:56:21.198Z,8.23
2018-01-03T00:58:48.861Z,9.27
2018-01-03T01:01:16.426Z,9.20
2018-01-03T01:03:44.086Z,9.40
2018-01-03T01:06:11.669Z,7.93
2018-01-03T01:08:39.247Z,9.00
2018-01-03T01:11:06.838Z,7.93
2018-01-03T01:13:34.442Z,9.00
2018-01-03T01:16:02.024Z,7.90
2018-01-03T01:18:29.604Z,8.67
2018-01-03T01:20:57.178Z,8.87
2018-01-03T01:23:24.754Z,7.90
2018-01-03T01:25:52.325Z,8.93
2018-01-03T01:28:19.999Z,8.70
2018-01-03T01:30:48.414Z,7.90
2018-01-03T01:33:15.995Z,8.45
2018-01-03T01:35:43.561Z,7.97
2018-01-03T01:38:11.147Z,6.93
2018-01-03T01:40:38.725Z,8.73
2018-01-03T01:43:06.295Z,7.47
2018-01-03T01:45:33.938Z,8.00
2018-01-03T01:48:01.574Z,7.93
2018-01-03T01:50:29.174Z,8.20
2018-01-03T01:52:56.741Z,8.30
2018-01-03T01:55:24.400Z,7.03
2018-01-03T01:57:52.812Z,8.40
2018-01-03T02:00:20.389Z,8.32
2018-01-03T02:02:47.954Z,8.50
2018-01-03T02:05:15.558Z,7.40
2018-01-03T02:07:43.258Z,7.23
2018-01-03T02:10:10.833Z,7.80
2018-01-03T02:12:38.399Z,8.63
2018-01-03T02:15:05.966Z,9.00
2018-01-03T02:17:33.534Z,7.90
2018-01-03T02:20:01.130Z,8.80
2018-01-03T02:22:28.698Z,7.60
2018-01-03T02:24:56.977Z,7.93
2018-01-03T02:27:24.625Z,8.07
2018-01-03T02:29:52.196Z,7.83
2018-01-03T02:32:19.848Z,7.73
2018-01-03T02:34:47.514Z,7.50
2018-01-03T02:37:15.179Z,8.73
2018-01-03T02:39:42.839Z,7.50
2018-01-03T02:42:10.419Z,6.80
2018-01-03T02:44:37.990Z,7.77
2018-01-03T02:47:05.558Z,7.23
2018-01-03T02:49:33.118Z,6.20
2018-01-03T02:52:00.743Z,5.67
2018-01-03T02:54:28.344Z,5.93
2018-01-03T02:56:55.970Z,6.37
2018-01-03T02:59:23.538Z,5.83
2018-01-03T03:01:51.122Z,6.83
2018-01-03T03:04:18.699Z,5.73
2018-01-03T03:06:46.266Z,6.47
2018-01-03T03:09:13.876Z,5.80
2018-01-03T03:11:41.534Z,6.60
2018-01-03T03:14:09.106Z,4.50
2018-01-03T03:16:36.763Z,4.60
2018-01-03T03:19:04.425Z,4.40
2018-01-03T03:21:31.989Z,5.50
2018-01-03T03:23:59.682Z,4.77
2018-01-03T03:26:27.249Z,4.77
2018-01-03T03:28:54.925Z,5.10
2018-01-03T03:31:22.539Z,4.73
2018-01-03T03:33:50.118Z,4.97
2018-01-03T03:36:17.759Z,5.27
2018-01-03T03:38:45.422Z,4.67
2018-01-03T03:41:13.082Z,5.70
2018-01-03T03:43:40.750Z,4.40
2018-01-03T03:46:08.315Z,3.90
2018-01-03T03:48:35.892Z,4.73
2018-01-03T03:51:03.490Z,5.03
2018-01-03T03:53:31.068Z,4.83
2018-01-03T03:55:58.650Z,4.03
2018-01-03T03:58:26.322Z,4.90
2018-01-03T04:00:53.973Z,4.00
2018-01-03T04:03:21.587Z,3.10
2018-01-03T04:05:49.150Z,4.10
2018-01-03T04:08:16.726Z,4.80
2018-01-03T04:10:44.326Z,4.07
2018-01-03T04:13:11.986Z,5.10
2018-01-03T04:15:39.646Z,4.00
2018-01-03T04:18:07.223Z,4.00
2018-01-03T04:20:34.842Z,4.30
2018-01-03T04:23:02.442Z,4.57
2018-01-03T04:25:30.007Z,4.60
2018-01-03T04:27:57.577Z,4.00
2018-01-03T04:30:25.147Z,4.33
2018-01-03T04:32:52.710Z,3.67
2018-01-03T04:35:20.322Z,4.07
2018-01-03T04:37:47.999Z,3.97
2018-01-03T04:40:15.566Z,3.47
2018-01-03T04:42:43.228Z,4.07
2018-01-03T04:45:10.886Z,3.23
2018-01-03T04:47:38.454Z,3.53
2018-01-03T04:50:06.107Z,3.53
2018-01-03T04:52:33.701Z,4.10
2018-01-03T04:55:01.281Z,4.13
2018-01-03T04:57:28.890Z,4.10
2018-01-03T04:59:56.503Z,3.83
2018-01-03T05:02:24.078Z,4.00
2018-01-03T05:04:51.642Z,4.60
2018-01-03T05:07:19.696Z,5.60
2018-01-03T05:09:47.307Z,3.13
2018-01-03T05:12:14.884Z,4.27
2018-01-03T05:14:42.467Z,4.30
2018-01-03T05:17:10.127Z,3.57
2018-01-03T05:19:37.707Z,4.33
2018-01-03T05:22:05.331Z,4.93
2018-01-03T05:24:32.911Z,4.20
2018-01-03T05:27:00.504Z,3.67
2018-01-03T05:29:28.110Z,4.10
2018-01-03T05:31:55.680Z,4.53
2018-01-03T05:34:23.250Z,5.30
2018-01-03T05:36:50.814Z,5.13
2018-01-03T05:39:18.387Z,5.33
2018-01-03T05:41:46.010Z,5.50
2018-01-03T05:44:13.616Z,4.40
2018-01-03T05:46:41.186Z,5.73
2018-01-03T05:49:08.750Z,5.53
2018-01-03T05:51:36.355Z,5.97
2018-01-03T05:54:03.924Z,5.60
2018-01-03T05:56:31.502Z,5.60
2018-01-03T05:58:59.139Z,5.10
2018-01-03T06:01:26.714Z,5.40
2018-01-03T06:03:54.279Z,6.03
2018-01-03T06:06:21.919Z,5.97
2018-01-03T06:08:49.519Z,6.20
2018-01-03T06:11:17.197Z,6.43
2018-01-03T06:13:44.767Z,6.30
2018-01-03T06:16:12.338Z,7.47
2018-01-03T06:18:39.910Z,6.37
2018-01-03T06:21:07.515Z,7.77
2018-01-03T06:23:35.082Z,7.40
2018-01-03T06:26:02.686Z,9.33
2018-01-03T06:28:30.264Z,6.30
2018-01-03T06:30:57.829Z,5.93
2018-01-03T06:33:25.434Z,6.27
2018-01-03T06:35:53.007Z,5.73
2018-01-03T06:38:20.575Z,6.60
2018-01-03T06:40:48.150Z,6.57
2018-01-03T06:43:15.847Z,5.90
2018-01-03T06:45:43.428Z,6.10
2018-01-03T06:48:11.006Z,7.93
2018-01-03T06:50:38.589Z,7.77
2018-01-03T06:53:06.155Z,7.57
2018-01-03T06:55:33.754Z,7.50
2018-01-03T06:58:01.419Z,6.57
2018-01-03T07:00:29.034Z,8.90
2018-01-03T07:02:56.602Z,9.10
2018-01-03T07:05:24.207Z,6.53
2018-01-03T07:07:51.788Z,7.10
2018-01-03T07:10:19.422Z,8.17
2018-01-03T07:12:46.990Z,6.47
2018-01-03T07:15:14.643Z,7.77
2018-01-03T07:17:42.309Z,7.10
2018-01-03T07:20:10.894Z,7.00
2018-01-03T07:22:38.463Z,9.20
2018-01-03T07:25:06.119Z,8.03
2018-01-03T07:27:33.788Z,7.20
2018-01-03T07:30:01.362Z,5.77
2018-01-03T07:32:28.938Z,7.40
2018-01-03T07:34:56.560Z,7.40
2018-01-03T07:37:24.172Z,7.23
2018-01-03T07:39:51.843Z,8.20
2018-01-03T07:42:19.458Z,6.63
2018-01-03T07:44:47.031Z,6.73
2018-01-03T07:47:14.676Z,6.80
2018-01-03T07:49:42.334Z,5.17
2018-01-03T07:52:09.998Z,6.10
2018-01-03T07:54:37.657Z,6.13
2018-01-03T07:57:05.230Z,7.57
2018-01-03T07:59:32.801Z,6.47
2018-01-03T08:02:00.371Z,5.20
2018-01-03T08:04:27.978Z,5.30
2018-01-03T08:06:55.574Z,4.63
2018-01-03T08:09:23.134Z,4.23
2018-01-03T08:11:50.699Z,4.77
2018-01-03T08:14:18.266Z,4.73
2018-01-03T08:16:45.836Z,4.80
2018-01-03T08:19:13.476Z,4.40
2018-01-03T08:21:41.042Z,4.23
2018-01-03T08:24:08.779Z,6.27
2018-01-03T08:26:36.326Z,3.40
2018-01-03T08:29:03.891Z,3.80
2018-01-03T08:31:31.458Z,4.20
2018-01-03T08:33:59.040Z,3.70
2018-01-03T08:36:26.612Z,4.10
2018-01-03T08:38:54.183Z,3.10
2018-01-03T08:41:21.743Z,3.60
2018-01-03T08:43:49.305Z,4.10
2018-01-03T08:46:16.871Z,3.80
2018-01-03T08:48:44.437Z,3.03
2018-01-03T08:51:12.031Z,3.93
2018-01-03T08:53:39.602Z,2.77
2018-01-03T08:56:07.290Z,2.90
2018-01-03T08:58:34.863Z,3.00
2018-01-03T09:01:02.546Z,2.50
2018-01-03T09:03:30.107Z,2.83
2018-01-03T09:05:57.726Z,2.80
2018-01-03T09:08:25.290Z,2.50
2018-01-03T09:10:52.855Z,2.20
2018-01-03T09:13:20.427Z,2.43
2018-01-03T09:15:48.087Z,2.57
2018-01-03T09:18:16.629Z,2.27
2018-01-03T09:20:44.196Z,2.07
2018-01-03T09:23:11.899Z,1.60
2018-01-03T09:25:39.465Z,1.50
2018-01-03T09:28:07.110Z,1.83
2018-01-03T09:30:34.683Z,1.77
2018-01-03T09:33:02.254Z,1.80
2018-01-03T09:35:29.818Z,1.87
2018-01-03T09:37:57.386Z,1.90
2018-01-03T09:40:24.946Z,1.90
2018-01-03T09:42:52.508Z,1.63
2018-01-03T09:45:20.078Z,1.73
2018-01-03T09:47:47.646Z,1.70
2018-01-03T09:50:15.215Z,2.00
2018-01-03T09:52:42.783Z,1.50
2018-01-03T09:55:10.350Z,1.70
2018-01-03T09:57:37.916Z,1.50
2018-01-03T10:00:05.519Z,1.67
2018-01-03T10:02:33.092Z,1.67
2018-01-03T10:05:00.658Z,1.77
2018-01-03T10:07:28.227Z,1.80
2018-01-03T10:09:55.797Z,1.90
2018-01-03T10:12:23.403Z,1.90
2018-01-03T10:14:51.091Z,1.80
2018-01-03T10:17:18.736Z,1.50
2018-01-03T10:19:46.394Z,1.63
2018-01-03T10:22:14.059Z,1.63
2018-01-03T10:24:41.673Z,1.67
2018-01-03T10:27:09.243Z,1.50
2018-01-03T10:29:36.862Z,2.20
2018-01-03T10:32:04.431Z,1.80
2018-01-03T10:34:31.994Z,1.70
2018-01-03T10:36:59.593Z,1.70
2018-01-03T10:39:27.154Z,1.80
2018-01-03T10:41:54.752Z,1.80
2018-01-03T10:44:22.322Z,1.53
2018-01-03T10:46:49.928Z,1.30
2018-01-03T10:49:17.498Z,1.90
2018-01-03T10:51:45.098Z,1.50
2018-01-03T10:54:12.701Z,1.47
2018-01-03T10:56:40.266Z,1.63
2018-01-03T10:59:07.834Z,1.67
2018-01-03T11:01:35.435Z,1.90
2018-01-03T11:04:03.019Z,1.90
2018-01-03T11:06:30.586Z,1.60
2018-01-03T11:08:58.226Z,1.53
2018-01-03T11:11:25.791Z,1.50
2018-01-03T11:13:53.358Z,1.67
2018-01-03T11:16:20.959Z,1.53
2018-01-03T11:18:48.672Z,1.50
2018-01-03T11:21:16.245Z,1.93
2018-01-03T11:23:43.819Z,2.10
2018-01-03T11:26:11.458Z,2.17
2018-01-03T11:28:39.114Z,1.90
2018-01-03T11:31:06.715Z,1.90
2018-01-03T11:33:34.289Z,1.30
2018-01-03T11:36:01.854Z,1.30
2018-01-03T11:38:29.421Z,1.83
2018-01-03T11:40:57.055Z,2.90
2018-01-03T11:43:24.685Z,1.70
2018-01-03T11:45:52.383Z,2.00
2018-01-03T11:48:19.947Z,1.80
2018-01-03T11:50:47.517Z,1.67
2018-01-03T11:53:15.987Z,1.93
2018-01-03T11:55:43.594Z,1.60
2018-01-03T11:58:11.162Z,1.37
2018-01-03T12:00:38.726Z,1.60
2018-01-03T12:03:06.290Z,1.43
2018-01-03T12:05:33.958Z,1.60
2018-01-03T12:08:01.567Z,1.33
2018-01-03T12:10:29.134Z,1.40
2018-01-03T12:12:56.740Z,2.03
2018-01-03T12:15:24.312Z,1.23
2018-01-03T12:17:51.878Z,1.60
2018-01-03T12:20:19.580Z,2.10
2018-01-03T12:22:51.239Z,1.90
2018-01-03T12:25:18.806Z,1.60
2018-01-03T12:27:46.507Z,1.80
2018-01-03T12:30:14.170Z,1.20
2018-01-03T12:32:41.834Z,1.47
2018-01-03T12:35:09.406Z,1.50
2018-01-03T12:37:36.979Z,1.20
2018-01-03T12:40:04.550Z,2.10
2018-01-03T12:42:32.183Z,1.80
2018-01-03T12:44:59.759Z,1.90
2018-01-03T12:47:27.412Z,1.50
2018-01-03T12:49:55.013Z,1.03
2018-01-03T12:52:22.582Z,1.20
2018-01-03T12:54:50.287Z,1.40
2018-01-03T12:57:17.858Z,1.30
2018-01-03T12:59:45.515Z,1.17
2018-01-03T13:02:13.078Z,1.20
2018-01-03T13:04:40.655Z,1.10
2018-01-03T13:07:08.998Z,1.00
2018-01-03T13:09:36.634Z,1.53
2018-01-03T13:12:04.238Z,1.10
2018-01-03T13:14:31.806Z,1.30
2018-01-03T13:16:59.463Z,1.03
2018-01-03T13:19:27.123Z,1.97
2018-01-03T13:21:54.694Z,1.30
2018-01-03T13:24:22.367Z,1.10
2018-01-03T13:26:50.013Z,2.13
2018-01-03T13:29:17.626Z,1.90
2018-01-03T13:31:45.236Z,1.50
2018-01-03T13:34:12.802Z,1.80
2018-01-03T13:36:40.506Z,1.83
2018-01-03T13:39:08.156Z,1.40
2018-01-03T13:41:35.858Z,1.67
2018-01-03T13:44:03.427Z,1.20
2018-01-03T13:46:31.005Z,1.53
2018-01-03T13:48:58.671Z,1.37
2018-01-03T13:51:26.238Z,1.50
2018-01-03T13:53:53.816Z,1.80
2018-01-03T13:56:21.386Z,1.70
2018-01-03T13:58:48.990Z,1.40
2018-01-03T14:01:16.681Z,1.40
2018-01-03T14:03:44.293Z,2.00
2018-01-03T14:06:12.066Z,1.40
2018-01-03T14:08:39.640Z,2.40
2018-01-03T14:11:07.298Z,1.40
2018-01-03T14:13:34.887Z,2.00
2018-01-03T14:16:02.559Z,1.60
2018-01-03T14:18:30.220Z,2.23
2018-01-03T14:20:57.796Z,1.87
2018-01-03T14:23:25.398Z,2.27
2018-01-03T14:25:52.979Z,2.47
2018-01-03T14:28:20.585Z,1.70
2018-01-03T14:30:48.150Z,1.60
2018-01-03T14:33:15.763Z,2.43
2018-01-03T14:35:43.335Z,2.00
2018-01-03T14:38:10.903Z,2.13
2018-01-03T14:40:38.500Z,2.23
2018-01-03T14:43:06.130Z,3.07
2018-01-03T14:45:33.707Z,2.07
2018-01-03T14:48:01.359Z,2.07
2018-01-03T14:50:29.057Z,2.07
2018-01-03T14:52:56.645Z,1.77
2018-01-03T14:55:24.216Z,1.80
2018-01-03T14:57:51.867Z,1.80
2018-01-03T15:00:19.439Z,2.40
2018-01-03T15:02:47.011Z,1.63
2018-01-03T15:05:14.595Z,1.73
2018-01-03T15:07:42.172Z,1.57
2018-01-03T15:10:09.783Z,1.60
2018-01-03T15:12:37.339Z,2.37
2018-01-03T15:15:04.904Z,2.00
2018-01-03T15:17:32.471Z,1.40
2018-01-03T15:20:00.068Z,2.00
2018-01-03T15:22:27.721Z,2.40
2018-01-03T15:24:55.286Z,2.53
2018-01-03T15:27:22.860Z,1.83
2018-01-03T15:29:50.435Z,3.43
2018-01-03T15:32:18.316Z,1.97
2018-01-03T15:34:46.054Z,2.37
2018-01-03T15:37:13.626Z,2.47
2018-01-03T15:39:41.322Z,2.10
2018-01-03T15:42:08.891Z,2.00
2018-01-03T15:44:36.465Z,2.43
2018-01-03T15:47:04.036Z,2.27
2018-01-03T15:49:31.651Z,2.50
2018-01-03T15:51:59.275Z,2.60
2018-01-03T15:54:26.902Z,3.50
2018-01-03T15:56:54.474Z,2.87
2018-01-03T15:59:22.104Z,3.30
2018-01-03T16:01:49.705Z,2.80
2018-01-03T16:04:17.275Z,3.50
2018-01-03T16:06:44.878Z,3.00
2018-01-03T16:09:12.716Z,3.07
2018-01-03T16:11:40.324Z,2.57
2018-01-03T16:14:07.899Z,2.60
2018-01-03T16:16:35.531Z,2.73
2018-01-03T16:19:03.095Z,2.80
2018-01-03T16:21:30.666Z,3.50
2018-01-03T16:23:58.234Z,3.30
2018-01-03T16:26:25.802Z,2.77
2018-01-03T16:28:53.383Z,3.80
2018-01-03T16:31:20.953Z,3.50
2018-01-03T16:33:48.566Z,3.43
2018-01-03T16:36:16.226Z,4.80
2018-01-03T16:38:43.954Z,3.63
2018-01-03T16:41:11.538Z,2.80
2018-01-03T16:43:39.230Z,2.37
2018-01-03T16:46:06.807Z,2.30
2018-01-03T16:48:34.380Z,2.90
2018-01-03T16:51:01.946Z,2.53
2018-01-03T16:53:29.522Z,3.00
2018-01-03T16:55:57.099Z,2.30
2018-01-03T16:58:24.667Z,2.07
2018-01-03T17:00:52.274Z,2.77
2018-01-03T17:03:19.883Z,2.03
2018-01-03T17:05:47.527Z,1.77
2018-01-03T17:08:15.137Z,2.67
2018-01-03T17:10:42.710Z,2.70
2018-01-03T17:13:10.314Z,2.87
2018-01-03T17:15:37.974Z,2.10
2018-01-03T17:18:05.787Z,2.27
2018-01-03T17:20:33.353Z,2.10
2018-01-03T17:23:00.954Z,1.87
2018-01-03T17:25:28.727Z,3.53
2018-01-03T17:27:56.355Z,2.73
2018-01-03T17:30:23.918Z,2.70
2018-01-03T17:32:51.520Z,2.50
2018-01-03T17:35:19.113Z,2.27
2018-01-03T17:37:46.683Z,2.63
2018-01-03T17:40:14.382Z,2.87
2018-01-03T17:42:41.955Z,2.47
2018-01-03T17:45:09.519Z,2.30
2018-01-03T17:47:37.102Z,2.60
2018-01-03T17:50:05.379Z,1.90
2018-01-03T17:52:32.986Z,1.70
2018-01-03T17:55:01.121Z,2.20
2018-01-03T17:57:28.703Z,1.70
2018-01-03T17:59:56.373Z,2.03
2018-01-03T18:02:25.444Z,1.90
2018-01-03T18:04:53.054Z,2.17
2018-01-03T18:07:20.706Z,2.00
2018-01-03T18:09:48.280Z,2.40
2018-01-03T18:12:15.890Z,2.00
2018-01-03T18:14:43.482Z,2.40
2018-01-03T18:17:11.048Z,2.20
2018-01-03T18:19:38.654Z,2.13
2018-01-03T18:22:06.218Z,2.40
2018-01-03T18:24:33.903Z,1.60
2018-01-03T18:27:01.542Z,1.70
2018-01-03T18:29:29.194Z,1.60
2018-01-03T18:31:56.855Z,2.17
2018-01-03T18:34:24.520Z,2.30
2018-01-03T18:36:52.184Z,2.37
2018-01-03T18:39:19.848Z,1.43
2018-01-03T18:41:47.506Z,2.03
2018-01-03T18:44:15.179Z,1.80
2018-01-03T18:46:42.890Z,1.70
2018-01-03T18:49:10.663Z,1.40
2018-01-03T18:51:38.231Z,1.40
2018-01-03T18:54:05.858Z,1.43
2018-01-03T18:56:33.543Z,1.30
2018-01-03T18:59:01.146Z,1.23
2018-01-03T19:01:28.719Z,1.23
2018-01-03T19:03:56.446Z,1.30
2018-01-03T19:06:24.275Z,1.07
2018-01-03T19:08:51.926Z,1.30
2018-01-03T19:11:20.282Z,1.17
2018-01-03T19:13:47.978Z,1.20
2018-01-03T19:16:15.556Z,2.03
2018-01-03T19:18:43.126Z,3.03
2018-01-03T19:21:10.694Z,1.70
2018-01-03T19:23:38.294Z,1.80
2018-01-03T19:26:05.959Z,1.60
2018-01-03T19:28:33.623Z,1.60
2018-01-03T19:31:01.247Z,1.77
2018-01-03T19:33:28.814Z,1.77
2018-01-03T19:35:56.539Z,1.40
2018-01-03T19:38:24.176Z,1.87
2018-01-03T19:40:51.799Z,1.73
2018-01-03T19:43:19.422Z,1.37
2018-01-03T19:45:47.018Z,1.50
2018-01-03T19:48:14.614Z,1.73
2018-01-03T19:50:42.186Z,1.97
2018-01-03T19:53:09.838Z,1.40
2018-01-03T19:55:37.439Z,1.27
2018-01-03T19:58:05.013Z,1.33
2018-01-03T20:00:32.631Z,1.20
2018-01-03T20:03:00.199Z,1.10
2018-01-03T20:05:27.807Z,1.00
2018-01-03T20:07:55.417Z,1.20
2018-01-03T20:10:23.070Z,1.30
2018-01-03T20:12:50.647Z,1.10
2018-01-03T20:15:18.534Z,1.00
2018-01-03T20:17:46.135Z,1.50
2018-01-03T20:20:13.855Z,0.83
2018-01-03T20:22:41.484Z,0.90
2018-01-03T20:25:09.055Z,0.90
2018-01-03T20:27:36.743Z,1.77
2018-01-03T20:30:04.383Z,0.80
2018-01-03T20:32:31.988Z,1.10
2018-01-03T20:34:59.560Z,1.37
2018-01-03T20:37:27.176Z,0.90
2018-01-03T20:39:54.854Z,1.00
2018-01-03T20:42:22.420Z,1.10
2018-01-03T20:44:49.994Z,1.23
2018-01-03T20:47:17.609Z,1.03
2018-01-03T20:49:45.187Z,1.20
2018-01-03T20:52:12.859Z,1.57
2018-01-03T20:54:40.476Z,1.30
2018-01-03T20:57:08.043Z,1.20
2018-01-03T20:59:35.709Z,1.17
2018-01-03T21:02:03.375Z,1.20
2018-01-03T21:04:31.034Z,1.27
2018-01-03T21:06:58.698Z,1.20
2018-01-03T21:09:26.273Z,1.43
2018-01-03T21:11:53.843Z,1.13
2018-01-03T21:14:21.455Z,1.40
2018-01-03T21:16:49.018Z,1.10
2018-01-03T21:19:16.579Z,1.60
2018-01-03T21:21:44.194Z,1.57
2018-01-03T21:24:11.786Z,3.60
2018-01-03T21:26:39.776Z,2.00
2018-01-03T21:29:07.343Z,1.40
2018-01-03T21:31:35.027Z,1.30
2018-01-03T21:34:02.596Z,1.47
2018-01-03T21:36:30.250Z,1.00
2018-01-03T21:38:57.908Z,1.40
2018-01-03T21:41:25.577Z,1.27
2018-01-03T21:43:53.271Z,1.50
2018-01-03T21:46:20.862Z,1.37
2018-01-03T21:48:48.488Z,1.13
2018-01-03T21:51:16.083Z,1.57
2018-01-03T21:53:43.682Z,1.50
2018-01-03T21:56:11.280Z,1.77
2018-01-03T21:58:38.842Z,1.43
2018-01-03T22:01:06.414Z,1.13
2018-01-03T22:03:34.031Z,1.17
2018-01-03T22:06:01.596Z,1.97
2018-01-03T22:08:29.255Z,1.40
2018-01-03T22:10:56.983Z,1.57
2018-01-03T22:13:24.553Z,1.30
2018-01-03T22:15:52.150Z,1.90
2018-01-03T22:18:19.726Z,1.67
2018-01-03T22:20:47.361Z,1.77
2018-01-03T22:23:14.986Z,1.30
2018-01-03T22:25:42.591Z,1.43
2018-01-03T22:28:10.242Z,1.33
2018-01-03T22:30:37.815Z,1.90
2018-01-03T22:33:05.466Z,1.40
2018-01-03T22:35:33.131Z,1.60
2018-01-03T22:38:00.794Z,1.17
2018-01-03T22:40:28.423Z,1.57
2018-01-03T22:42:55.986Z,1.27
2018-01-03T22:45:23.551Z,1.23
2018-01-03T22:47:51.138Z,1.53
2018-01-03T22:50:18.718Z,2.13
2018-01-03T22:52:46.364Z,1.40
2018-01-03T22:55:13.935Z,1.30
2018-01-03T22:57:41.591Z,1.40
2018-01-03T23:00:09.186Z,1.53
2018-01-03T23:02:36.846Z,1.37
2018-01-03T23:05:04.475Z,1.23
2018-01-03T23:07:32.046Z,1.23
2018-01-03T23:09:59.699Z,2.00
2018-01-03T23:12:27.359Z,1.70
2018-01-03T23:14:54.975Z,1.70
2018-01-03T23:17:22.548Z,1.57
2018-01-03T23:19:50.134Z,1.30
2018-01-03T23:22:17.739Z,1.30
2018-01-03T23:24:45.314Z,1.40
2018-01-03T23:27:12.925Z,1.60
2018-01-03T23:29:40.499Z,1.23
2018-01-03T23:32:08.100Z,1.10
2018-01-03T23:34:35.702Z,1.93
2018-01-03T23:37:03.275Z,1.20
2018-01-03T23:39:30.843Z,1.20
2018-01-03T23:41:58.502Z,1.30
2018-01-03T23:44:26.070Z,2.40
2018-01-03T23:46:53.683Z,1.30
2018-01-03T23:49:21.247Z,1.50
2018-01-03T23:51:48.847Z,1.30
2018-01-03T23:54:16.410Z,1.23
2018-01-03T23:56:44.017Z,1.97
2018-01-03T23:59:11.583Z,1.40
